Weslaco, TX

6:17 PM CDT on August 24, 2016 (GMT -0500)
Progreso Lakes | | Change Station

Elev 85 ft 26.07 °N, 97.97 °W | Updated 3 seconds ago

Clear
Clear
93.0 °F
Feels Like 99 °F
N
14.5
Wind Variable Wind from ESE

Today
High -- | Low -- °F
--% Chance of Precip.
Yesterday
High -- | Low -- °F
Precip. -- in
Pressure 29.95 in
Visibility 10.0 miles
Clouds Clear
Heat Index 99 °F
Dew Point 70 °F
Humidity 47%
Rainfall 0.00 in
Snow Depth Not available.
7:08 AM 7:59 PM
Waning Gibbous, 52% visible
METAR KMFE 242253Z 16015G23KT 10SM CLR 37/17 A2995 RMK AO2 SLP140 T03670172
Pressure 29.95 in
Visibility 10.0 miles
Clouds Clear
Heat Index 99 °F
Dew Point 70 °F
Humidity 47%
Rainfall 0.00 in
Snow Depth Not available.
7:08 AM 7:59 PM
Waning Gibbous, 52% visible
METAR KMFE 242253Z 16015G23KT 10SM CLR 37/17 A2995 RMK AO2 SLP140 T03670172

10-Day Weather Forecast

Almanac

Astronomy

Aug. 24, 2016 Rise Set
Actual Time
Civil Twilight
Nautical Twilight
Astronomical Twilight
Moon
Length of Visible Light
Length of Day
Tomorrow will be .
, % of the Moon is Illuminated

Today's Extremes

State Highs State Lows

Community

WunderPhotos

Upload Photos

1,934,731 photos uploaded!

WunderBlog® & News

Nearby

Air Quality

  Air Quality AQ Index Pollutant
Not available.

Snow Depth

Station Depth Elevation

Earthquake Activity

City Distance Mag. Time & Date
Minimum magnitude displayed is 2.5.

Coastal Water Temperatures

Place Temperature

Stations

Nearby Weather Stations

Station Location Temp. Windchill Dew Point Humidity Wind Precip. Elev Updated Type
                   

Watches & Warnings

There are currently no watches in effect.